Eagle San Antonio — 9V9330 — position and weather

sailwx.info

Track history (hours):
 
Tides and Currents Weather Stations Pressure Air Temp Water Temp Dewpoint Dewpoint Depression Visibility Wind Speed Wind Dir Waves Ship Positions

Eagle San Antonio

Last reported at 2015-Jan-23 02:29 UTC. Time now 2015-Jan-30 09:26 UTC.
Position N 05°20' E 004°25'.

Length 274 m; draft 9.3 m.

Type: Tanker. MMSI: 566453000.

Date/timePositionNaut miles runAvg speedWind from/ knotsBaromVisibWave heightAir tempDewpointWater temp
2015-Jan-23 02:29N 05°20' E 004°25'  
2015-Jan-15 19:23N 08°18' W 017°10'2212.2
2015-Jan-15 17:33N 08°39' W 017°14'1212.3
2015-Jan-15 16:33N 08°51' W 017°17'1212.3
2015-Jan-15 15:33N 09°03' W 017°19'3712.1
2015-Jan-15 12:32N 09°39' W 017°27'2412.1
2015-Jan-15 10:33N 10°02' W 017°32'1712.1
2015-Jan-15 09:06N 10°20' W 017°36'712.3
2015-Jan-15 08:33N 10°26' W 017°37'1212.3
2015-Jan-15 07:33N 10°38' W 017°40'3812.2
2015-Jan-15 04:27N 11°15' W 017°48'1112.1
2015-Jan-15 03:32N 11°26' W 017°50'2512.3
2015-Jan-15 01:33N 11°50' W 017°55'  
Track history (hours):
 
Tides and Currents Weather Stations Pressure Air Temp Water Temp Dewpoint Dewpoint Depression Visibility Wind Speed Wind Dir Waves Ship Positions

Eagle San Antonio

Last reported at 2015-Jan-23 02:29 UTC. Time now 2015-Jan-30 09:26 UTC.
Position N 05°20' E 004°25'.

Length 274 m; draft 9.3 m.

Type: Tanker. MMSI: 566453000.

Date/timePositionNaut miles runAvg speedWind from/ knotsBaromVisibWave heightAir tempDewpointWater temp
2015-Jan-23 02:29N 05°20' E 004°25'  
2015-Jan-15 19:23N 08°18' W 017°10'2212.2
2015-Jan-15 17:33N 08°39' W 017°14'1212.3
2015-Jan-15 16:33N 08°51' W 017°17'1212.3
2015-Jan-15 15:33N 09°03' W 017°19'3712.1
2015-Jan-15 12:32N 09°39' W 017°27'2412.1
2015-Jan-15 10:33N 10°02' W 017°32'1712.1
2015-Jan-15 09:06N 10°20' W 017°36'712.3
2015-Jan-15 08:33N 10°26' W 017°37'1212.3
2015-Jan-15 07:33N 10°38' W 017°40'3812.2
2015-Jan-15 04:27N 11°15' W 017°48'1112.1
2015-Jan-15 03:32N 11°26' W 017°50'2512.3
2015-Jan-15 01:33N 11°50' W 017°55'  

Dump ship's entire track history